createdAt,value
2019-04-25T00:01:33.959Z,96604.46
2019-04-25T00:04:04.425Z,96620.07
2019-04-25T00:06:37.194Z,96589.81
2019-04-25T00:09:14.239Z,96689.52
2019-04-25T00:11:46.633Z,96654.33
2019-04-25T00:14:16.730Z,96622.39
2019-04-25T00:16:47.647Z,96586.03
2019-04-25T00:19:17.983Z,96721.94
2019-04-25T00:22:13.208Z,96647.41
2019-04-25T00:25:17.197Z,96621.71
2019-04-25T00:27:45.992Z,96602.32
2019-04-25T00:30:18.892Z,96562.69
2019-04-25T00:32:49.351Z,96611.02
2019-04-25T00:35:22.987Z,96609.87
2019-04-25T00:37:53.412Z,96666.98
2019-04-25T00:40:23.990Z,96667.98
2019-04-25T00:42:54.334Z,96633.55
2019-04-25T00:45:24.613Z,96627.98
2019-04-25T00:47:54.910Z,96611.20
2019-04-25T00:50:25.234Z,96554.64
2019-04-25T00:52:55.656Z,96508.89
2019-04-25T00:55:28.806Z,96466.30
2019-04-25T00:58:04.970Z,96441.66
2019-04-25T01:00:54.010Z,96411.58
2019-04-25T01:03:27.872Z,96433.26
2019-04-25T01:05:58.149Z,96454.66
2019-04-25T01:08:29.137Z,96404.67
2019-04-25T01:11:01.545Z,96372.17
2019-04-25T01:13:32.191Z,96313.67
2019-04-25T01:16:05.892Z,96316.30
2019-04-25T01:18:37.457Z,96304.63
2019-04-25T01:21:07.832Z,96328.61
2019-04-25T01:23:38.173Z,96338.16
2019-04-25T01:26:09.784Z,96389.72
2019-04-25T01:28:40.125Z,96584.94
2019-04-25T01:31:15.594Z,96647.73
2019-04-25T01:33:46.697Z,96733.97
2019-04-25T01:36:44.336Z,96821.92
2019-04-25T01:39:41.434Z,96790.97
2019-04-25T01:42:31.712Z,96681.00
2019-04-25T01:45:04.075Z,96706.00
2019-04-25T01:47:34.443Z,96647.23
2019-04-25T01:50:05.422Z,96723.94
2019-04-25T01:52:38.848Z,96816.31
2019-04-25T01:55:13.791Z,96828.84
2019-04-25T01:57:45.358Z,96782.41
2019-04-25T02:00:21.199Z,96869.06
2019-04-25T02:02:54.575Z,96891.95
2019-04-25T02:05:24.824Z,96813.70
2019-04-25T02:08:00.507Z,96799.22
2019-04-25T02:10:30.777Z,96738.61
2019-04-25T02:13:04.064Z,96813.20
2019-04-25T02:15:35.061Z,96752.09
2019-04-25T02:18:05.374Z,96653.52
2019-04-25T02:20:36.053Z,96569.14
2019-04-25T02:23:06.389Z,96524.08
2019-04-25T02:25:36.783Z,96467.66
2019-04-25T02:28:07.141Z,96449.89
2019-04-25T02:30:37.554Z,96376.48
2019-04-25T02:33:09.261Z,96316.17
2019-04-25T02:35:45.736Z,96269.88
2019-04-25T02:38:14.699Z,96209.33
2019-04-25T02:40:46.224Z,96186.05
2019-04-25T02:43:16.566Z,96124.02
2019-04-25T02:46:09.114Z,96091.54
2019-04-25T02:48:59.636Z,96069.27
2019-04-25T02:51:34.972Z,96046.64
2019-04-25T02:54:07.948Z,96007.30
2019-04-25T02:56:39.066Z,95955.66
2019-04-25T02:59:09.805Z,95925.86
2019-04-25T03:01:40.104Z,95953.89
2019-04-25T03:04:11.350Z,96038.58
2019-04-25T03:06:41.951Z,96087.95
2019-04-25T03:09:12.213Z,96044.66
2019-04-25T03:11:45.143Z,96013.51
2019-04-25T03:14:14.765Z,95986.98
2019-04-25T03:16:45.177Z,95966.18
2019-04-25T03:19:27.777Z,95965.68
2019-04-25T03:22:03.763Z,95974.38
2019-04-25T03:24:35.288Z,96046.32
2019-04-25T03:27:06.187Z,96040.08
2019-04-25T03:29:37.452Z,96070.59
2019-04-25T03:32:11.765Z,96074.35
2019-04-25T03:34:40.392Z,96122.08
2019-04-25T03:37:13.744Z,96173.43
2019-04-25T03:39:44.209Z,96175.24
2019-04-25T03:42:14.605Z,96212.96
2019-04-25T03:44:45.727Z,96242.84
2019-04-25T03:47:16.006Z,96304.72
2019-04-25T03:49:46.587Z,96382.39
2019-04-25T03:52:16.939Z,96445.30
2019-04-25T03:54:47.233Z,96507.34
2019-04-25T03:57:17.734Z,96518.84
2019-04-25T03:59:48.119Z,96628.20
2019-04-25T04:02:19.628Z,96598.44
2019-04-25T04:04:53.768Z,96594.84
2019-04-25T04:07:24.220Z,96592.02
2019-04-25T04:09:55.113Z,96632.66
2019-04-25T04:12:25.973Z,96646.00
2019-04-25T04:14:57.719Z,96646.95
2019-04-25T04:17:39.865Z,96683.86
2019-04-25T04:20:43.571Z,96731.58
2019-04-25T04:23:25.166Z,96787.05
2019-04-25T04:25:55.506Z,96887.70
2019-04-25T04:28:25.906Z,96973.59
2019-04-25T04:30:56.413Z,97056.88
2019-04-25T04:33:32.274Z,97121.07
2019-04-25T04:35:58.693Z,97228.53
2019-04-25T04:38:29.323Z,97282.86
2019-04-25T04:41:00.118Z,97337.05
2019-04-25T04:43:30.432Z,97428.80
2019-04-25T04:46:01.014Z,97454.44
2019-04-25T04:48:31.341Z,97493.78
2019-04-25T04:51:03.298Z,97543.77
2019-04-25T04:53:35.784Z,97585.28
2019-04-25T04:56:05.713Z,97638.56
2019-04-25T04:58:36.127Z,97672.02
2019-04-25T05:01:06.477Z,97701.98
2019-04-25T05:03:44.088Z,97755.63
2019-04-25T05:06:23.437Z,97795.41
2019-04-25T05:08:58.745Z,97854.88
2019-04-25T05:11:29.052Z,97901.32
2019-04-25T05:14:04.564Z,97975.26
2019-04-25T05:16:39.089Z,98054.41
2019-04-25T05:19:09.748Z,98172.46
2019-04-25T05:21:40.054Z,98278.77
2019-04-25T05:24:10.473Z,98350.75
2019-04-25T05:26:40.953Z,98386.98
2019-04-25T05:29:14.005Z,98451.19
2019-04-25T05:31:50.247Z,98568.98
2019-04-25T05:34:20.420Z,98605.26
2019-04-25T05:36:50.818Z,98709.84
2019-04-25T05:39:25.053Z,98798.03
2019-04-25T05:42:12.075Z,98995.14
2019-04-25T05:44:44.019Z,99192.80
2019-04-25T05:47:17.464Z,99524.22
2019-04-25T05:49:48.924Z,99698.57
2019-04-25T05:52:19.919Z,99881.81
2019-04-25T05:54:50.319Z,99853.11
2019-04-25T05:57:23.935Z,99922.72
2019-04-25T05:59:55.048Z,99864.50
2019-04-25T06:02:26.524Z,100042.02
2019-04-25T06:04:59.083Z,100183.92
2019-04-25T06:07:29.386Z,100401.62
2019-04-25T06:10:30.794Z,100556.24
2019-04-25T06:13:26.081Z,100320.20
2019-04-25T06:15:57.399Z,100594.45
2019-04-25T06:18:36.405Z,100831.09
2019-04-25T06:21:08.170Z,101196.69
2019-04-25T06:23:47.275Z,101450.66
2019-04-25T06:26:26.712Z,101321.87
2019-04-25T06:28:57.061Z,101431.66
2019-04-25T06:31:26.552Z,101660.86
2019-04-25T06:33:55.950Z,101762.64
2019-04-25T06:36:27.127Z,101786.00
2019-04-25T06:38:57.671Z,101627.07
2019-04-25T06:41:28.179Z,101468.10
2019-04-25T06:44:00.201Z,101349.66
2019-04-25T06:46:49.530Z,101600.14
2019-04-25T06:49:27.781Z,101376.52
2019-04-25T06:52:00.506Z,101577.58
2019-04-25T06:54:31.618Z,101864.78
2019-04-25T06:57:04.921Z,102057.50
2019-04-25T06:59:38.666Z,101973.61
2019-04-25T07:02:07.643Z,102044.77
2019-04-25T07:04:38.012Z,102150.53
2019-04-25T07:07:12.054Z,101925.76
2019-04-25T07:09:40.412Z,102037.44
2019-04-25T07:12:10.726Z,102118.57
2019-04-25T07:14:41.079Z,102533.71
2019-04-25T07:17:14.344Z,102582.39
2019-04-25T07:19:44.774Z,102485.31
2019-04-25T07:22:16.571Z,102414.08
2019-04-25T07:24:47.500Z,102383.42
2019-04-25T07:27:36.837Z,102686.48
2019-04-25T07:30:48.435Z,102860.69
2019-04-25T07:33:15.608Z,102854.17
2019-04-25T07:35:46.115Z,102967.42
2019-04-25T07:38:16.491Z,103187.74
2019-04-25T07:40:48.102Z,103187.84
2019-04-25T07:43:19.591Z,103445.42
2019-04-25T07:45:50.109Z,102961.89
2019-04-25T07:48:22.668Z,102847.63
2019-04-25T07:50:53.704Z,102857.88
2019-04-25T07:53:26.980Z,102563.13
2019-04-25T07:55:56.633Z,102715.41
2019-04-25T07:58:49.302Z,102646.92
2019-04-25T08:01:14.498Z,102679.12
2019-04-25T08:03:45.183Z,102840.63
2019-04-25T08:06:15.674Z,102693.52
2019-04-25T08:08:46.558Z,102451.32
2019-04-25T08:11:18.438Z,102623.45
2019-04-25T08:13:57.155Z,102731.40
2019-04-25T08:16:30.147Z,103033.67
2019-04-25T08:19:03.926Z,103211.54
2019-04-25T08:21:35.668Z,103269.47
2019-04-25T08:24:06.917Z,103556.35
2019-04-25T08:26:37.691Z,103838.56
2019-04-25T08:29:08.050Z,103849.45
2019-04-25T08:31:39.349Z,103367.18
2019-04-25T08:34:09.730Z,103401.84
2019-04-25T08:36:42.031Z,103152.20
2019-04-25T08:39:14.664Z,103514.34
2019-04-25T08:41:45.915Z,103628.23
2019-04-25T08:44:16.256Z,103974.31
2019-04-25T08:46:48.753Z,104091.11
2019-04-25T08:49:25.188Z,103813.34
2019-04-25T08:51:56.218Z,104043.91
2019-04-25T08:54:40.086Z,104453.66
2019-04-25T08:57:14.438Z,104880.06
2019-04-25T09:00:06.641Z,104830.95
2019-04-25T09:02:49.838Z,104945.91
2019-04-25T09:05:32.634Z,104814.80
2019-04-25T09:08:04.191Z,104008.47
2019-04-25T09:10:38.406Z,104045.14
2019-04-25T09:13:07.958Z,104206.95
2019-04-25T09:15:39.909Z,104457.76
2019-04-25T09:18:11.069Z,104505.91
2019-04-25T09:20:46.655Z,104381.64
2019-04-25T09:23:16.200Z,104314.94
2019-04-25T09:25:46.599Z,104481.83
2019-04-25T09:28:19.443Z,104910.44
2019-04-25T09:30:50.219Z,105286.30
2019-04-25T09:33:20.856Z,104567.50
2019-04-25T09:35:51.188Z,104665.80
2019-04-25T09:38:21.589Z,105024.84
2019-04-25T09:40:54.054Z,105403.48
2019-04-25T09:43:24.927Z,105517.31
2019-04-25T09:46:14.264Z,105469.86
2019-04-25T09:48:59.708Z,104799.89
2019-04-25T09:51:37.966Z,104490.52
2019-04-25T09:54:33.582Z,104711.52
2019-04-25T09:57:23.375Z,104399.47
2019-04-25T09:59:53.749Z,104477.76
2019-04-25T10:02:26.202Z,104707.92
2019-04-25T10:04:56.508Z,104538.10
2019-04-25T10:07:26.838Z,104783.00
2019-04-25T10:09:57.477Z,104971.70
2019-04-25T10:12:29.438Z,104621.69
2019-04-25T10:15:24.071Z,104633.16
2019-04-25T10:17:54.450Z,104677.86
2019-04-25T10:20:24.814Z,105169.87
2019-04-25T10:22:56.084Z,105197.38
2019-04-25T10:25:27.653Z,104878.15
2019-04-25T10:27:59.744Z,104945.22
2019-04-25T10:30:30.155Z,104959.91
2019-04-25T10:33:04.097Z,104621.25
2019-04-25T10:35:46.701Z,104311.00
2019-04-25T10:38:08.839Z,104213.80
2019-04-25T10:40:39.396Z,104471.19
2019-04-25T10:43:10.532Z,104183.31
2019-04-25T10:45:42.368Z,104464.78
2019-04-25T10:48:13.706Z,104578.97
2019-04-25T10:50:45.923Z,104720.17
2019-04-25T10:53:17.583Z,104897.48
2019-04-25T10:55:48.062Z,104984.98
2019-04-25T10:58:18.535Z,104902.22
2019-04-25T11:00:51.678Z,104532.55
2019-04-25T11:03:35.973Z,103861.23
2019-04-25T11:06:07.604Z,103822.36
2019-04-25T11:08:37.986Z,104044.32
2019-04-25T11:11:10.497Z,104169.81
2019-04-25T11:13:41.706Z,104395.16
2019-04-25T11:16:13.862Z,103823.23
2019-04-25T11:18:45.453Z,103616.63
2019-04-25T11:21:16.805Z,102919.25
2019-04-25T11:23:48.792Z,102454.70
2019-04-25T11:26:19.168Z,102047.69
2019-04-25T11:28:49.618Z,101851.53
2019-04-25T11:31:26.738Z,101882.13
2019-04-25T11:33:57.352Z,101852.64
2019-04-25T11:36:27.955Z,101875.16
2019-04-25T11:39:18.830Z,101759.23
2019-04-25T11:41:49.562Z,101349.66
2019-04-25T11:44:20.033Z,101094.53
2019-04-25T11:46:50.344Z,100963.83
2019-04-25T11:49:20.631Z,100971.46
2019-04-25T11:51:52.372Z,101104.02
2019-04-25T11:54:24.302Z,101024.78
2019-04-25T11:56:56.432Z,100865.68
2019-04-25T11:59:29.328Z,100784.25
2019-04-25T12:01:59.997Z,100743.78
2019-04-25T12:04:30.346Z,100740.95
2019-04-25T12:07:02.052Z,100740.95
2019-04-25T12:09:33.623Z,100649.95
2019-04-25T12:12:05.728Z,100583.81
2019-04-25T12:14:39.553Z,100579.91
2019-04-25T12:17:10.028Z,100464.16
2019-04-25T12:19:47.880Z,100441.22
2019-04-25T12:22:20.631Z,100464.50
2019-04-25T12:24:55.750Z,100414.84
2019-04-25T12:27:41.846Z,100242.31
2019-04-25T12:30:37.455Z,100183.98
2019-04-25T12:33:18.371Z,100153.43
2019-04-25T12:35:40.131Z,100003.65
2019-04-25T12:38:14.140Z,99920.27
2019-04-25T12:40:46.868Z,99884.03
2019-04-25T12:43:19.781Z,99867.11
2019-04-25T12:46:00.536Z,99866.11
2019-04-25T12:48:31.382Z,99843.64
2019-04-25T12:51:03.216Z,99745.38
2019-04-25T12:53:35.866Z,99769.17
2019-04-25T12:56:11.353Z,99787.81
2019-04-25T12:58:43.734Z,99798.23
2019-04-25T13:01:15.336Z,99754.09
2019-04-25T13:03:46.163Z,99733.66
2019-04-25T13:06:16.544Z,99752.75
2019-04-25T13:08:59.571Z,99738.34
2019-04-25T13:11:33.314Z,99723.91
2019-04-25T13:14:07.272Z,99671.83
2019-04-25T13:19:51.806Z,99507.77
2019-04-25T13:22:30.031Z,99478.48
2019-04-25T13:25:06.767Z,99447.67
2019-04-25T13:28:14.431Z,99454.53
2019-04-25T13:31:19.630Z,99367.42
2019-04-25T13:34:36.424Z,99262.75
2019-04-25T13:37:10.816Z,99299.20
2019-04-25T13:39:44.071Z,99246.04
2019-04-25T13:42:19.038Z,99269.27
2019-04-25T13:45:08.847Z,99342.00
2019-04-25T13:47:39.218Z,99364.09
2019-04-25T13:50:26.095Z,99325.27
2019-04-25T13:53:04.553Z,99365.43
2019-04-25T13:55:37.005Z,99414.89
2019-04-25T13:58:07.402Z,99472.48
2019-04-25T14:00:38.224Z,99443.34
2019-04-25T14:03:08.723Z,99434.31
2019-04-25T14:05:41.602Z,99478.81
2019-04-25T14:08:13.246Z,99509.45
2019-04-25T14:10:44.425Z,99431.30
2019-04-25T14:13:14.889Z,99483.84
2019-04-25T14:15:51.214Z,99400.20
2019-04-25T14:18:34.294Z,99441.33
2019-04-25T14:21:14.677Z,99468.13
2019-04-25T14:23:45.145Z,99375.45
2019-04-25T14:26:17.160Z,99401.72
2019-04-25T14:28:47.548Z,99452.54
2019-04-25T14:31:33.613Z,99530.69
2019-04-25T14:33:53.264Z,99567.17
2019-04-25T14:36:25.829Z,99601.85
2019-04-25T14:38:56.121Z,99593.16
2019-04-25T14:41:26.424Z,99628.80
2019-04-25T14:43:57.236Z,99731.16
2019-04-25T14:46:38.544Z,99804.46
2019-04-25T14:49:09.254Z,99808.13
2019-04-25T14:51:41.491Z,99817.69
2019-04-25T14:54:30.691Z,99865.80
2019-04-25T14:57:07.871Z,99845.35
2019-04-25T14:59:38.234Z,99866.30
2019-04-25T15:02:09.458Z,99813.67
2019-04-25T15:04:41.366Z,99861.45
2019-04-25T15:07:12.341Z,99895.34
2019-04-25T15:09:42.960Z,99861.94
2019-04-25T15:12:14.314Z,99862.78
2019-04-25T15:14:44.924Z,99919.47
2019-04-25T15:17:18.555Z,99819.86
2019-04-25T15:19:49.521Z,99725.78
2019-04-25T15:22:20.087Z,99724.29
2019-04-25T15:24:50.568Z,99785.98
2019-04-25T15:27:48.277Z,99863.09
2019-04-25T15:30:29.295Z,99871.16
2019-04-25T15:33:01.071Z,99888.59
2019-04-25T15:35:40.656Z,99804.77
2019-04-25T15:38:15.888Z,99799.08
2019-04-25T15:40:56.177Z,99750.07
2019-04-25T15:43:42.595Z,99670.48
2019-04-25T15:46:27.704Z,99644.53
2019-04-25T15:48:59.101Z,99664.27
2019-04-25T15:51:29.932Z,99598.65
2019-04-25T15:54:00.227Z,99676.34
2019-04-25T15:56:30.740Z,99662.59
2019-04-25T15:59:01.179Z,99570.49
2019-04-25T16:01:32.414Z,99524.64
2019-04-25T16:04:06.446Z,99530.84
2019-04-25T16:06:37.804Z,99496.22
2019-04-25T16:09:10.554Z,99526.81
2019-04-25T16:11:41.526Z,99495.19
2019-04-25T16:14:11.890Z,99415.23
2019-04-25T16:16:42.218Z,99364.07
2019-04-25T16:19:13.080Z,99374.09
2019-04-25T16:21:43.523Z,99366.40
2019-04-25T16:24:13.870Z,99305.88
2019-04-25T16:26:44.239Z,99281.12
2019-04-25T16:29:14.598Z,99243.03
2019-04-25T16:31:44.930Z,99223.63
2019-04-25T16:34:15.234Z,99251.38
2019-04-25T16:36:45.548Z,99231.65
2019-04-25T16:39:18.905Z,99216.11
2019-04-25T16:41:50.016Z,99164.34
2019-04-25T16:44:21.319Z,99118.56
2019-04-25T16:46:51.620Z,99137.93
2019-04-25T16:49:22.370Z,99142.80
2019-04-25T16:51:52.774Z,99118.40
2019-04-25T16:54:23.116Z,99123.73
2019-04-25T16:56:58.630Z,99110.72
2019-04-25T16:59:29.629Z,99115.05
2019-04-25T17:02:00.175Z,99098.70
2019-04-25T17:04:31.169Z,99075.33
2019-04-25T17:07:01.689Z,99063.98
2019-04-25T17:09:32.126Z,99044.62
2019-04-25T17:12:04.427Z,99071.83
2019-04-25T17:14:56.566Z,98995.22
2019-04-25T17:17:43.444Z,98975.03
2019-04-25T17:20:17.978Z,98978.03
2019-04-25T17:22:48.266Z,98990.88
2019-04-25T17:25:21.387Z,98997.89
2019-04-25T17:27:51.735Z,98956.86
2019-04-25T17:30:22.490Z,98977.04
2019-04-25T17:33:20.895Z,98965.19
2019-04-25T17:36:13.276Z,98974.53
2019-04-25T17:38:55.615Z,98974.20
2019-04-25T17:41:27.187Z,98984.88
2019-04-25T17:44:05.418Z,99007.06
2019-04-25T17:46:38.370Z,98986.21
2019-04-25T17:49:08.682Z,98988.54
2019-04-25T17:51:39.488Z,98976.86
2019-04-25T17:54:09.972Z,98981.54
2019-04-25T17:56:43.040Z,98987.20
2019-04-25T17:59:13.456Z,98999.38
2019-04-25T18:01:44.351Z,99005.05
2019-04-25T18:04:18.769Z,98979.03
2019-04-25T18:06:49.178Z,98989.88
2019-04-25T18:09:20.677Z,98973.52
2019-04-25T18:11:51.634Z,98952.84
2019-04-25T18:14:22.292Z,98945.84
2019-04-25T18:16:52.897Z,98960.85
2019-04-25T18:19:42.433Z,98945.50
2019-04-25T18:22:26.350Z,98904.30
2019-04-25T18:25:18.145Z,98922.97
2019-04-25T18:28:02.332Z,98883.63
2019-04-25T18:30:35.602Z,98903.80
2019-04-25T18:33:26.359Z,98904.95
2019-04-25T18:36:02.223Z,98898.30
2019-04-25T18:38:50.268Z,98861.62
2019-04-25T18:41:46.021Z,98845.78
2019-04-25T18:44:16.391Z,98844.45
2019-04-25T18:46:48.645Z,98825.42
2019-04-25T18:49:19.601Z,98842.45
2019-04-25T18:51:57.918Z,98838.11
2019-04-25T18:54:48.931Z,98873.45
2019-04-25T18:57:40.438Z,98847.95
2019-04-25T19:00:37.678Z,98824.59
2019-04-25T19:03:45.799Z,98845.78
2019-04-25T19:06:17.664Z,98813.92
2019-04-25T19:08:49.153Z,98821.92
2019-04-25T19:11:19.426Z,98861.95
2019-04-25T19:13:51.705Z,98847.61
2019-04-25T19:16:22.151Z,98824.25
2019-04-25T19:18:52.445Z,98823.42
2019-04-25T19:21:22.772Z,98810.42
2019-04-25T19:23:53.312Z,98789.39
2019-04-25T19:26:25.117Z,98755.75
2019-04-25T19:28:57.840Z,98766.41
2019-04-25T19:31:28.260Z,98781.07
2019-04-25T19:33:58.959Z,98789.39
2019-04-25T19:36:31.143Z,98769.41
2019-04-25T19:39:01.499Z,98720.91
2019-04-25T19:41:51.822Z,98704.26
2019-04-25T19:44:26.711Z,98738.77
2019-04-25T19:47:05.170Z,98721.57
2019-04-25T19:49:35.524Z,98663.14
2019-04-25T19:52:05.922Z,98696.09
2019-04-25T19:54:36.322Z,98688.09
2019-04-25T19:57:06.652Z,98658.64
2019-04-25T19:59:37.031Z,98644.82
2019-04-25T20:02:12.238Z,98628.01
2019-04-25T20:04:51.151Z,98614.50
2019-04-25T20:07:32.384Z,98599.52
2019-04-25T20:10:26.652Z,98635.34
2019-04-25T20:12:57.055Z,98613.00
2019-04-25T20:15:27.359Z,98609.17
2019-04-25T20:17:57.722Z,98617.66
2019-04-25T20:20:28.023Z,98610.50
2019-04-25T20:22:58.323Z,98613.83
2019-04-25T20:25:29.983Z,98573.73
2019-04-25T20:28:02.850Z,98570.89
2019-04-25T20:30:34.578Z,98537.63
2019-04-25T20:33:08.433Z,98493.34
2019-04-25T20:35:39.384Z,98511.31
2019-04-25T20:38:09.719Z,98476.55
2019-04-25T20:40:40.577Z,98452.78
2019-04-25T20:43:10.920Z,98425.19
2019-04-25T20:45:42.304Z,98433.49
2019-04-25T20:48:13.008Z,98408.86
2019-04-25T20:50:43.281Z,98451.78
2019-04-25T20:53:13.596Z,98423.35
2019-04-25T20:55:43.969Z,98445.80
2019-04-25T20:58:16.336Z,98438.15
2019-04-25T21:00:50.410Z,98437.81
2019-04-25T21:03:21.103Z,98432.99
2019-04-25T21:05:53.632Z,98445.13
2019-04-25T21:08:24.601Z,98436.82
2019-04-25T21:10:56.574Z,98438.98
2019-04-25T21:13:38.984Z,98398.55
2019-04-25T21:16:27.234Z,98394.23
2019-04-25T21:19:04.421Z,98360.33
2019-04-25T21:21:35.007Z,98360.33
2019-04-25T21:24:06.566Z,98349.36
2019-04-25T21:26:36.986Z,98292.52
2019-04-25T21:29:08.842Z,98278.56
2019-04-25T21:31:45.156Z,98238.05
2019-04-25T21:34:25.351Z,98214.44
2019-04-25T21:36:47.900Z,98192.48
2019-04-25T21:39:31.140Z,98156.14
2019-04-25T21:42:17.821Z,98172.23
2019-04-25T21:44:48.529Z,98125.77
2019-04-25T21:47:19.862Z,98127.43
2019-04-25T21:49:50.458Z,98087.41
2019-04-25T21:52:28.207Z,98079.28
2019-04-25T21:54:59.549Z,98057.88
2019-04-25T21:57:30.676Z,98032.84
2019-04-25T22:00:06.716Z,98018.58
2019-04-25T22:02:34.709Z,98038.14
2019-04-25T22:05:06.897Z,98020.23
2019-04-25T22:07:38.647Z,97992.05
2019-04-25T22:10:10.982Z,97986.05
2019-04-25T22:12:42.667Z,97972.62
2019-04-25T22:15:13.488Z,97957.20
2019-04-25T22:17:43.839Z,97934.82
2019-04-25T22:20:15.723Z,97979.08
2019-04-25T22:22:46.321Z,97952.23
2019-04-25T22:25:16.977Z,97932.34
2019-04-25T22:27:47.749Z,97923.22
2019-04-25T22:30:19.891Z,97944.44
2019-04-25T22:33:07.725Z,97901.84
2019-04-25T22:35:43.239Z,97897.53
2019-04-25T22:38:13.767Z,97873.97
2019-04-25T22:40:44.854Z,97872.65
2019-04-25T22:43:17.410Z,97849.13
2019-04-25T22:45:48.177Z,97810.20
2019-04-25T22:48:26.046Z,97800.92
2019-04-25T22:50:56.625Z,97823.78
2019-04-25T22:53:28.941Z,97809.70
2019-04-25T22:55:59.324Z,97799.44
2019-04-25T22:58:29.733Z,97808.70
2019-04-25T23:01:00.720Z,97799.09
2019-04-25T23:03:37.725Z,97844.48
2019-04-25T23:06:08.452Z,97821.80
2019-04-25T23:08:41.491Z,97813.02
2019-04-25T23:11:12.457Z,97808.38
2019-04-25T23:13:43.013Z,97777.55
2019-04-25T23:16:13.617Z,97757.02
2019-04-25T23:18:43.943Z,97730.86
2019-04-25T23:21:14.533Z,97720.59
2019-04-25T23:23:45.833Z,97750.55
2019-04-25T23:26:44.165Z,97764.30
2019-04-25T23:29:16.081Z,97800.42
2019-04-25T23:31:46.497Z,97835.70
2019-04-25T23:34:18.209Z,97866.02
2019-04-25T23:36:48.479Z,97865.69
2019-04-25T23:39:19.251Z,97883.59
2019-04-25T23:41:49.607Z,97871.83
2019-04-25T23:44:21.097Z,97918.09
2019-04-25T23:46:51.747Z,97940.46
2019-04-25T23:49:23.664Z,97949.91
2019-04-25T23:51:54.045Z,98015.27
2019-04-25T23:54:24.622Z,98006.64
2019-04-25T23:56:54.954Z,98011.95
2019-04-25T23:59:25.244Z,98046.44
